sensor_id;sensor_type;location;lat;lon;timestamp;P1;durP1;ratioP1;P2;durP2;ratioP2
71975;SDS011;60680;52.182;5.398;2023-02-21T00:02:22;30.02;;;11.82;;
71975;SDS011;60680;52.182;5.398;2023-02-21T00:05:08;29.53;;;10.73;;
71975;SDS011;60680;52.182;5.398;2023-02-21T00:07:53;26.15;;;10.75;;
71975;SDS011;60680;52.182;5.398;2023-02-21T00:10:38;30.77;;;11.07;;
71975;SDS011;60680;52.182;5.398;2023-02-21T00:13:23;27.65;;;11.10;;
71975;SDS011;60680;52.182;5.398;2023-02-21T00:16:08;29.77;;;10.77;;
71975;SDS011;60680;52.182;5.398;2023-02-21T00:18:52;30.13;;;11.93;;
71975;SDS011;60680;52.182;5.398;2023-02-21T00:21:37;29.48;;;12.20;;
71975;SDS011;60680;52.182;5.398;2023-02-21T00:24:22;27.52;;;10.95;;
71975;SDS011;60680;52.182;5.398;2023-02-21T00:27:07;29.98;;;11.50;;
71975;SDS011;60680;52.182;5.398;2023-02-21T00:29:52;25.80;;;10.82;;
71975;SDS011;60680;52.182;5.398;2023-02-21T00:32:37;29.20;;;12.93;;
71975;SDS011;60680;52.182;5.398;2023-02-21T00:35:22;30.08;;;11.77;;
71975;SDS011;60680;52.182;5.398;2023-02-21T00:38:07;28.83;;;12.02;;
71975;SDS011;60680;52.182;5.398;2023-02-21T00:40:52;32.20;;;10.88;;
71975;SDS011;60680;52.182;5.398;2023-02-21T00:43:40;26.95;;;11.38;;
71975;SDS011;60680;52.182;5.398;2023-02-21T00:46:26;29.03;;;10.97;;
71975;SDS011;60680;52.182;5.398;2023-02-21T00:49:11;31.77;;;11.80;;
71975;SDS011;60680;52.182;5.398;2023-02-21T00:51:56;28.10;;;10.95;;
71975;SDS011;60680;52.182;5.398;2023-02-21T00:54:41;31.50;;;11.80;;
71975;SDS011;60680;52.182;5.398;2023-02-21T00:57:25;27.90;;;11.95;;
71975;SDS011;60680;52.182;5.398;2023-02-21T01:00:17;29.17;;;12.47;;
71975;SDS011;60680;52.182;5.398;2023-02-21T01:03:04;32.33;;;11.38;;
71975;SDS011;60680;52.182;5.398;2023-02-21T01:05:50;29.60;;;11.10;;
71975;SDS011;60680;52.182;5.398;2023-02-21T01:08:39;30.48;;;12.10;;
71975;SDS011;60680;52.182;5.398;2023-02-21T01:11:25;32.05;;;11.98;;
71975;SDS011;60680;52.182;5.398;2023-02-21T01:14:09;28.57;;;11.30;;
71975;SDS011;60680;52.182;5.398;2023-02-21T01:16:55;36.17;;;12.15;;
71975;SDS011;60680;52.182;5.398;2023-02-21T01:19:40;32.55;;;12.02;;
71975;SDS011;60680;52.182;5.398;2023-02-21T01:22:26;36.97;;;12.50;;
71975;SDS011;60680;52.182;5.398;2023-02-21T01:25:12;34.53;;;12.43;;
71975;SDS011;60680;52.182;5.398;2023-02-21T01:27:58;28.80;;;11.53;;
71975;SDS011;60680;52.182;5.398;2023-02-21T01:30:44;38.63;;;12.80;;
71975;SDS011;60680;52.182;5.398;2023-02-21T01:33:33;33.50;;;12.35;;
71975;SDS011;60680;52.182;5.398;2023-02-21T01:36:19;37.33;;;12.75;;
71975;SDS011;60680;52.182;5.398;2023-02-21T01:39:04;33.70;;;12.43;;
71975;SDS011;60680;52.182;5.398;2023-02-21T01:41:49;34.00;;;13.67;;
71975;SDS011;60680;52.182;5.398;2023-02-21T01:44:38;29.85;;;11.25;;
71975;SDS011;60680;52.182;5.398;2023-02-21T01:49:51;35.13;;;12.82;;
71975;SDS011;60680;52.182;5.398;2023-02-21T01:52:36;40.42;;;13.18;;
71975;SDS011;60680;52.182;5.398;2023-02-21T01:55:21;36.67;;;13.13;;
71975;SDS011;60680;52.182;5.398;2023-02-21T01:58:06;36.40;;;13.30;;
71975;SDS011;60680;52.182;5.398;2023-02-21T02:00:51;41.40;;;14.48;;
71975;SDS011;60680;52.182;5.398;2023-02-21T02:03:36;36.40;;;13.68;;
71975;SDS011;60680;52.182;5.398;2023-02-21T02:06:22;35.42;;;14.10;;
71975;SDS011;60680;52.182;5.398;2023-02-21T02:09:17;32.90;;;13.43;;
71975;SDS011;60680;52.182;5.398;2023-02-21T02:12:14;35.42;;;13.75;;
71975;SDS011;60680;52.182;5.398;2023-02-21T02:17:57;34.05;;;13.13;;
71975;SDS011;60680;52.182;5.398;2023-02-21T02:34:49;30.73;;;11.82;;
71975;SDS011;60680;52.182;5.398;2023-02-21T02:40:27;31.98;;;11.82;;
71975;SDS011;60680;52.182;5.398;2023-02-21T02:43:05;30.38;;;11.63;;
71975;SDS011;60680;52.182;5.398;2023-02-21T02:45:42;31.23;;;12.35;;
71975;SDS011;60680;52.182;5.398;2023-02-21T02:50:46;31.97;;;11.73;;
71975;SDS011;60680;52.182;5.398;2023-02-21T02:53:16;30.20;;;12.30;;
71975;SDS011;60680;52.182;5.398;2023-02-21T02:55:47;30.77;;;11.65;;
71975;SDS011;60680;52.182;5.398;2023-02-21T02:58:17;31.65;;;11.88;;
71975;SDS011;60680;52.182;5.398;2023-02-21T03:00:52;32.10;;;12.45;;
71975;SDS011;60680;52.182;5.398;2023-02-21T03:03:54;28.20;;;12.50;;
71975;SDS011;60680;52.182;5.398;2023-02-21T03:09:24;30.65;;;12.35;;
71975;SDS011;60680;52.182;5.398;2023-02-21T03:14:30;34.53;;;12.57;;
71975;SDS011;60680;52.182;5.398;2023-02-21T03:17:05;35.27;;;12.60;;
71975;SDS011;60680;52.182;5.398;2023-02-21T03:19:37;33.42;;;13.20;;
71975;SDS011;60680;52.182;5.398;2023-02-21T03:22:08;31.23;;;14.15;;
71975;SDS011;60680;52.182;5.398;2023-02-21T03:24:38;31.50;;;12.23;;
71975;SDS011;60680;52.182;5.398;2023-02-21T03:27:07;36.38;;;13.35;;
71975;SDS011;60680;52.182;5.398;2023-02-21T03:29:35;33.43;;;12.30;;
71975;SDS011;60680;52.182;5.398;2023-02-21T03:32:13;33.67;;;12.40;;
71975;SDS011;60680;52.182;5.398;2023-02-21T03:34:44;32.85;;;12.43;;
71975;SDS011;60680;52.182;5.398;2023-02-21T03:37:18;40.75;;;14.27;;
71975;SDS011;60680;52.182;5.398;2023-02-21T03:39:47;35.15;;;14.15;;
71975;SDS011;60680;52.182;5.398;2023-02-21T03:42:13;37.10;;;13.30;;
71975;SDS011;60680;52.182;5.398;2023-02-21T03:44:40;37.00;;;13.85;;
71975;SDS011;60680;52.182;5.398;2023-02-21T03:47:06;36.17;;;13.45;;
71975;SDS011;60680;52.182;5.398;2023-02-21T03:49:33;36.80;;;13.98;;
71975;SDS011;60680;52.182;5.398;2023-02-21T03:51:59;37.15;;;12.80;;
71975;SDS011;60680;52.182;5.398;2023-02-21T03:54:25;38.17;;;13.50;;
71975;SDS011;60680;52.182;5.398;2023-02-21T03:56:52;37.80;;;14.15;;
71975;SDS011;60680;52.182;5.398;2023-02-21T03:59:18;40.58;;;14.15;;
71975;SDS011;60680;52.182;5.398;2023-02-21T04:01:45;37.90;;;13.52;;
71975;SDS011;60680;52.182;5.398;2023-02-21T04:04:11;39.45;;;14.32;;
71975;SDS011;60680;52.182;5.398;2023-02-21T04:06:38;43.57;;;15.17;;
71975;SDS011;60680;52.182;5.398;2023-02-21T04:09:04;40.13;;;14.77;;
71975;SDS011;60680;52.182;5.398;2023-02-21T04:11:31;39.55;;;14.75;;
71975;SDS011;60680;52.182;5.398;2023-02-21T04:13:57;43.25;;;15.60;;
71975;SDS011;60680;52.182;5.398;2023-02-21T04:16:24;39.85;;;14.35;;
71975;SDS011;60680;52.182;5.398;2023-02-21T04:18:50;36.13;;;13.80;;
71975;SDS011;60680;52.182;5.398;2023-02-21T04:21:18;37.42;;;13.90;;
71975;SDS011;60680;52.182;5.398;2023-02-21T04:23:44;41.88;;;14.50;;
71975;SDS011;60680;52.182;5.398;2023-02-21T04:26:11;45.35;;;14.23;;
71975;SDS011;60680;52.182;5.398;2023-02-21T04:28:37;42.20;;;14.23;;
71975;SDS011;60680;52.182;5.398;2023-02-21T04:31:03;38.97;;;14.03;;
71975;SDS011;60680;52.182;5.398;2023-02-21T04:33:30;40.38;;;15.35;;
71975;SDS011;60680;52.182;5.398;2023-02-21T04:35:56;42.60;;;15.63;;
71975;SDS011;60680;52.182;5.398;2023-02-21T04:38:23;44.20;;;15.30;;
71975;SDS011;60680;52.182;5.398;2023-02-21T04:40:49;40.10;;;15.23;;
71975;SDS011;60680;52.182;5.398;2023-02-21T04:43:16;43.03;;;15.30;;
71975;SDS011;60680;52.182;5.398;2023-02-21T04:45:42;41.03;;;15.23;;
71975;SDS011;60680;52.182;5.398;2023-02-21T04:48:09;46.35;;;15.85;;
71975;SDS011;60680;52.182;5.398;2023-02-21T04:50:35;38.47;;;14.38;;
71975;SDS011;60680;52.182;5.398;2023-02-21T04:53:02;45.83;;;15.15;;
71975;SDS011;60680;52.182;5.398;2023-02-21T04:55:28;41.83;;;14.67;;
71975;SDS011;60680;52.182;5.398;2023-02-21T04:57:55;42.90;;;14.98;;
71975;SDS011;60680;52.182;5.398;2023-02-21T05:00:21;44.05;;;15.23;;
71975;SDS011;60680;52.182;5.398;2023-02-21T05:02:48;42.67;;;14.73;;
71975;SDS011;60680;52.182;5.398;2023-02-21T05:05:15;48.90;;;16.50;;
71975;SDS011;60680;52.182;5.398;2023-02-21T05:07:41;48.67;;;16.50;;
71975;SDS011;60680;52.182;5.398;2023-02-21T05:10:08;44.50;;;15.15;;
71975;SDS011;60680;52.182;5.398;2023-02-21T05:12:36;43.85;;;15.90;;
71975;SDS011;60680;52.182;5.398;2023-02-21T05:15:05;43.50;;;15.73;;
71975;SDS011;60680;52.182;5.398;2023-02-21T05:17:32;48.13;;;15.13;;
71975;SDS011;60680;52.182;5.398;2023-02-21T05:19:59;43.53;;;14.70;;
71975;SDS011;60680;52.182;5.398;2023-02-21T05:22:26;47.40;;;16.33;;
71975;SDS011;60680;52.182;5.398;2023-02-21T05:24:52;46.35;;;16.10;;
71975;SDS011;60680;52.182;5.398;2023-02-21T05:27:19;45.40;;;15.23;;
71975;SDS011;60680;52.182;5.398;2023-02-21T05:29:47;46.55;;;16.13;;
71975;SDS011;60680;52.182;5.398;2023-02-21T05:32:18;50.90;;;16.10;;
71975;SDS011;60680;52.182;5.398;2023-02-21T05:34:46;50.53;;;16.40;;
71975;SDS011;60680;52.182;5.398;2023-02-21T05:37:13;43.13;;;15.18;;
71975;SDS011;60680;52.182;5.398;2023-02-21T05:39:40;44.47;;;16.42;;
71975;SDS011;60680;52.182;5.398;2023-02-21T05:42:07;44.65;;;15.55;;
71975;SDS011;60680;52.182;5.398;2023-02-21T05:44:33;48.73;;;15.20;;
71975;SDS011;60680;52.182;5.398;2023-02-21T05:47:00;44.28;;;15.65;;
71975;SDS011;60680;52.182;5.398;2023-02-21T05:49:27;42.95;;;16.00;;
71975;SDS011;60680;52.182;5.398;2023-02-21T05:51:54;44.42;;;16.08;;
71975;SDS011;60680;52.182;5.398;2023-02-21T05:54:20;43.67;;;15.70;;
71975;SDS011;60680;52.182;5.398;2023-02-21T05:56:47;49.70;;;17.27;;
71975;SDS011;60680;52.182;5.398;2023-02-21T05:59:16;42.28;;;15.02;;
71975;SDS011;60680;52.182;5.398;2023-02-21T06:01:45;48.20;;;16.45;;
71975;SDS011;60680;52.182;5.398;2023-02-21T06:04:12;52.58;;;16.00;;
71975;SDS011;60680;52.182;5.398;2023-02-21T06:06:39;43.72;;;16.48;;
71975;SDS011;60680;52.182;5.398;2023-02-21T06:09:05;44.33;;;15.00;;
71975;SDS011;60680;52.182;5.398;2023-02-21T06:11:33;43.17;;;16.25;;
71975;SDS011;60680;52.182;5.398;2023-02-21T06:14:03;49.25;;;16.73;;
71975;SDS011;60680;52.182;5.398;2023-02-21T06:16:35;49.25;;;15.23;;
71975;SDS011;60680;52.182;5.398;2023-02-21T06:19:04;50.53;;;15.52;;
71975;SDS011;60680;52.182;5.398;2023-02-21T06:21:32;44.07;;;15.00;;
71975;SDS011;60680;52.182;5.398;2023-02-21T06:23:58;46.70;;;16.05;;
71975;SDS011;60680;52.182;5.398;2023-02-21T06:26:25;47.58;;;16.25;;
71975;SDS011;60680;52.182;5.398;2023-02-21T06:28:52;46.95;;;16.00;;
71975;SDS011;60680;52.182;5.398;2023-02-21T06:31:20;47.90;;;16.67;;
71975;SDS011;60680;52.182;5.398;2023-02-21T06:33:47;45.67;;;15.40;;
71975;SDS011;60680;52.182;5.398;2023-02-21T06:36:19;49.80;;;16.15;;
71975;SDS011;60680;52.182;5.398;2023-02-21T06:38:48;49.58;;;15.27;;
71975;SDS011;60680;52.182;5.398;2023-02-21T06:41:17;42.95;;;14.85;;
71975;SDS011;60680;52.182;5.398;2023-02-21T06:43:45;47.70;;;15.82;;
71975;SDS011;60680;52.182;5.398;2023-02-21T06:46:16;47.20;;;14.90;;
71975;SDS011;60680;52.182;5.398;2023-02-21T06:48:43;52.40;;;16.55;;
71975;SDS011;60680;52.182;5.398;2023-02-21T06:51:10;50.70;;;16.25;;
71975;SDS011;60680;52.182;5.398;2023-02-21T06:53:37;55.60;;;17.00;;
71975;SDS011;60680;52.182;5.398;2023-02-21T06:56:03;54.25;;;16.52;;
71975;SDS011;60680;52.182;5.398;2023-02-21T06:58:30;54.20;;;17.23;;
71975;SDS011;60680;52.182;5.398;2023-02-21T07:00:57;50.08;;;16.35;;
71975;SDS011;60680;52.182;5.398;2023-02-21T07:03:23;57.78;;;16.77;;
71975;SDS011;60680;52.182;5.398;2023-02-21T07:05:50;51.53;;;16.35;;
71975;SDS011;60680;52.182;5.398;2023-02-21T07:08:17;48.72;;;17.25;;
71975;SDS011;60680;52.182;5.398;2023-02-21T07:10:44;44.63;;;15.13;;
71975;SDS011;60680;52.182;5.398;2023-02-21T07:13:10;56.63;;;16.63;;
71975;SDS011;60680;52.182;5.398;2023-02-21T07:15:36;55.92;;;17.23;;
71975;SDS011;60680;52.182;5.398;2023-02-21T07:18:03;55.92;;;17.17;;
71975;SDS011;60680;52.182;5.398;2023-02-21T07:20:29;56.67;;;16.35;;
71975;SDS011;60680;52.182;5.398;2023-02-21T07:22:58;51.50;;;16.53;;
71975;SDS011;60680;52.182;5.398;2023-02-21T07:25:24;48.63;;;16.08;;
71975;SDS011;60680;52.182;5.398;2023-02-21T07:27:51;59.25;;;17.55;;
71975;SDS011;60680;52.182;5.398;2023-02-21T07:30:18;54.88;;;16.20;;
71975;SDS011;60680;52.182;5.398;2023-02-21T07:32:44;62.22;;;17.25;;
71975;SDS011;60680;52.182;5.398;2023-02-21T07:35:14;55.90;;;17.47;;
71975;SDS011;60680;52.182;5.398;2023-02-21T07:37:40;59.95;;;17.27;;
71975;SDS011;60680;52.182;5.398;2023-02-21T07:40:07;54.55;;;17.63;;
71975;SDS011;60680;52.182;5.398;2023-02-21T07:42:34;58.22;;;16.20;;
71975;SDS011;60680;52.182;5.398;2023-02-21T07:45:00;57.05;;;17.35;;
71975;SDS011;60680;52.182;5.398;2023-02-21T07:47:27;51.53;;;17.33;;
71975;SDS011;60680;52.182;5.398;2023-02-21T07:49:54;54.35;;;17.00;;
71975;SDS011;60680;52.182;5.398;2023-02-21T07:52:20;53.60;;;16.73;;
71975;SDS011;60680;52.182;5.398;2023-02-21T07:54:47;53.45;;;16.92;;
71975;SDS011;60680;52.182;5.398;2023-02-21T07:57:15;59.90;;;18.05;;
71975;SDS011;60680;52.182;5.398;2023-02-21T07:59:42;55.60;;;17.47;;
71975;SDS011;60680;52.182;5.398;2023-02-21T08:02:10;60.65;;;17.67;;
71975;SDS011;60680;52.182;5.398;2023-02-21T08:04:37;55.83;;;17.77;;
71975;SDS011;60680;52.182;5.398;2023-02-21T08:07:04;63.53;;;18.50;;
71975;SDS011;60680;52.182;5.398;2023-02-21T08:09:31;53.65;;;17.80;;
71975;SDS011;60680;52.182;5.398;2023-02-21T08:11:58;56.43;;;18.03;;
71975;SDS011;60680;52.182;5.398;2023-02-21T08:14:25;54.17;;;16.52;;
71975;SDS011;60680;52.182;5.398;2023-02-21T08:16:51;57.47;;;17.33;;
71975;SDS011;60680;52.182;5.398;2023-02-21T08:19:18;64.63;;;17.98;;
71975;SDS011;60680;52.182;5.398;2023-02-21T08:21:45;62.88;;;18.00;;
71975;SDS011;60680;52.182;5.398;2023-02-21T08:24:12;55.43;;;15.73;;
71975;SDS011;60680;52.182;5.398;2023-02-21T08:26:39;62.38;;;17.48;;
71975;SDS011;60680;52.182;5.398;2023-02-21T08:29:13;60.70;;;19.67;;
71975;SDS011;60680;52.182;5.398;2023-02-21T08:31:41;62.95;;;18.35;;
71975;SDS011;60680;52.182;5.398;2023-02-21T08:34:09;66.85;;;17.77;;
71975;SDS011;60680;52.182;5.398;2023-02-21T08:36:38;61.60;;;18.83;;
71975;SDS011;60680;52.182;5.398;2023-02-21T08:39:08;61.65;;;17.75;;
71975;SDS011;60680;52.182;5.398;2023-02-21T08:41:39;59.67;;;18.50;;
71975;SDS011;60680;52.182;5.398;2023-02-21T08:44:11;57.60;;;16.80;;
71975;SDS011;60680;52.182;5.398;2023-02-21T08:46:38;59.50;;;19.42;;
71975;SDS011;60680;52.182;5.398;2023-02-21T08:49:06;58.93;;;17.93;;
71975;SDS011;60680;52.182;5.398;2023-02-21T08:51:33;62.15;;;16.80;;
71975;SDS011;60680;52.182;5.398;2023-02-21T08:54:00;57.72;;;18.17;;
71975;SDS011;60680;52.182;5.398;2023-02-21T08:56:28;64.25;;;17.80;;
71975;SDS011;60680;52.182;5.398;2023-02-21T08:58:55;59.33;;;17.98;;
71975;SDS011;60680;52.182;5.398;2023-02-21T09:01:22;59.57;;;18.27;;
71975;SDS011;60680;52.182;5.398;2023-02-21T09:03:55;52.70;;;16.77;;
71975;SDS011;60680;52.182;5.398;2023-02-21T09:06:22;61.60;;;17.83;;
71975;SDS011;60680;52.182;5.398;2023-02-21T09:08:48;60.67;;;18.42;;
71975;SDS011;60680;52.182;5.398;2023-02-21T09:11:15;61.08;;;17.95;;
71975;SDS011;60680;52.182;5.398;2023-02-21T09:13:42;57.23;;;16.83;;
71975;SDS011;60680;52.182;5.398;2023-02-21T09:16:08;57.30;;;17.48;;
71975;SDS011;60680;52.182;5.398;2023-02-21T09:18:35;61.83;;;18.05;;
71975;SDS011;60680;52.182;5.398;2023-02-21T09:21:01;61.42;;;17.77;;
71975;SDS011;60680;52.182;5.398;2023-02-21T09:23:28;55.80;;;16.27;;
71975;SDS011;60680;52.182;5.398;2023-02-21T09:25:55;56.53;;;16.43;;
71975;SDS011;60680;52.182;5.398;2023-02-21T09:28:22;57.60;;;16.77;;
71975;SDS011;60680;52.182;5.398;2023-02-21T09:30:49;56.95;;;16.40;;
71975;SDS011;60680;52.182;5.398;2023-02-21T09:33:16;53.35;;;15.52;;
71975;SDS011;60680;52.182;5.398;2023-02-21T09:35:43;58.80;;;16.65;;
71975;SDS011;60680;52.182;5.398;2023-02-21T09:38:09;55.07;;;15.97;;
71975;SDS011;60680;52.182;5.398;2023-02-21T09:40:39;54.95;;;15.65;;
71975;SDS011;60680;52.182;5.398;2023-02-21T09:43:07;47.58;;;14.90;;
71975;SDS011;60680;52.182;5.398;2023-02-21T09:45:40;51.63;;;15.63;;
71975;SDS011;60680;52.182;5.398;2023-02-21T09:48:16;50.58;;;15.82;;
71975;SDS011;60680;52.182;5.398;2023-02-21T09:50:46;51.80;;;15.80;;
71975;SDS011;60680;52.182;5.398;2023-02-21T09:53:19;49.60;;;16.30;;
71975;SDS011;60680;52.182;5.398;2023-02-21T09:56:06;47.25;;;14.68;;
71975;SDS011;60680;52.182;5.398;2023-02-21T09:58:41;47.20;;;14.75;;
71975;SDS011;60680;52.182;5.398;2023-02-21T10:12:39;49.40;;;14.68;;
71975;SDS011;60680;52.182;5.398;2023-02-21T10:17:43;45.57;;;13.83;;
71975;SDS011;60680;52.182;5.398;2023-02-21T10:20:54;47.50;;;14.88;;
71975;SDS011;60680;52.182;5.398;2023-02-21T10:23:06;50.75;;;14.98;;
71975;SDS011;60680;52.182;5.398;2023-02-21T10:25:44;47.80;;;14.50;;
71975;SDS011;60680;52.182;5.398;2023-02-21T10:28:15;48.05;;;14.93;;
71975;SDS011;60680;52.182;5.398;2023-02-21T10:30:43;48.07;;;15.07;;
71975;SDS011;60680;52.182;5.398;2023-02-21T10:33:11;44.53;;;14.60;;
71975;SDS011;60680;52.182;5.398;2023-02-21T10:35:38;44.60;;;14.93;;
71975;SDS011;60680;52.182;5.398;2023-02-21T10:38:06;46.85;;;13.20;;
71975;SDS011;60680;52.182;5.398;2023-02-21T10:40:38;50.25;;;14.75;;
71975;SDS011;60680;52.182;5.398;2023-02-21T10:45:50;45.20;;;13.68;;
71975;SDS011;60680;52.182;5.398;2023-02-21T10:48:23;42.72;;;13.75;;
71975;SDS011;60680;52.182;5.398;2023-02-21T10:53:33;42.65;;;14.13;;
71975;SDS011;60680;52.182;5.398;2023-02-21T10:56:23;42.77;;;14.47;;
71975;SDS011;60680;52.182;5.398;2023-02-21T11:03:52;48.17;;;14.80;;
71975;SDS011;60680;52.182;5.398;2023-02-21T11:09:23;44.07;;;13.40;;
71975;SDS011;60680;52.182;5.398;2023-02-21T11:11:51;41.47;;;14.07;;
71975;SDS011;60680;52.182;5.398;2023-02-21T11:14:31;42.28;;;13.70;;
71975;SDS011;60680;52.182;5.398;2023-02-21T11:17:06;45.80;;;13.85;;
71975;SDS011;60680;52.182;5.398;2023-02-21T11:19:56;50.30;;;15.00;;
71975;SDS011;60680;52.182;5.398;2023-02-21T11:27:43;40.42;;;13.75;;
71975;SDS011;60680;52.182;5.398;2023-02-21T11:30:18;44.03;;;13.80;;
71975;SDS011;60680;52.182;5.398;2023-02-21T11:32:50;45.83;;;13.80;;
71975;SDS011;60680;52.182;5.398;2023-02-21T11:38:05;42.05;;;13.10;;
71975;SDS011;60680;52.182;5.398;2023-02-21T11:40:46;47.55;;;14.90;;
71975;SDS011;60680;52.182;5.398;2023-02-21T11:43:31;40.47;;;13.43;;
71975;SDS011;60680;52.182;5.398;2023-02-21T11:46:10;46.78;;;14.88;;
71975;SDS011;60680;52.182;5.398;2023-02-21T11:51:17;46.30;;;14.02;;
71975;SDS011;60680;52.182;5.398;2023-02-21T11:53:56;47.40;;;14.88;;
71975;SDS011;60680;52.182;5.398;2023-02-21T11:56:27;53.22;;;14.50;;
71975;SDS011;60680;52.182;5.398;2023-02-21T12:04:37;51.55;;;14.15;;
71975;SDS011;60680;52.182;5.398;2023-02-21T12:13:21;49.85;;;14.45;;
71975;SDS011;60680;52.182;5.398;2023-02-21T12:35:40;53.28;;;13.75;;
71975;SDS011;60680;52.182;5.398;2023-02-21T12:41:06;53.20;;;13.68;;
71975;SDS011;60680;52.182;5.398;2023-02-21T12:43:51;43.03;;;13.03;;
71975;SDS011;60680;52.182;5.398;2023-02-21T12:46:34;49.50;;;14.20;;
71975;SDS011;60680;52.182;5.398;2023-02-21T12:49:13;50.58;;;14.68;;
71975;SDS011;60680;52.182;5.398;2023-02-21T12:51:49;53.45;;;14.77;;
71975;SDS011;60680;52.182;5.398;2023-02-21T12:54:23;51.97;;;14.30;;
71975;SDS011;60680;52.182;5.398;2023-02-21T12:57:13;47.50;;;13.17;;
71975;SDS011;60680;52.182;5.398;2023-02-21T12:59:54;57.42;;;15.65;;
71975;SDS011;60680;52.182;5.398;2023-02-21T13:02:35;60.47;;;15.85;;
71975;SDS011;60680;52.182;5.398;2023-02-21T13:05:17;51.70;;;14.25;;
71975;SDS011;60680;52.182;5.398;2023-02-21T13:13:35;50.20;;;13.75;;
71975;SDS011;60680;52.182;5.398;2023-02-21T13:16:03;51.83;;;14.77;;
71975;SDS011;60680;52.182;5.398;2023-02-21T13:21:13;47.05;;;13.60;;
71975;SDS011;60680;52.182;5.398;2023-02-21T13:23:51;50.83;;;14.00;;
71975;SDS011;60680;52.182;5.398;2023-02-21T13:29:24;42.67;;;13.25;;
71975;SDS011;60680;52.182;5.398;2023-02-21T13:31:57;48.33;;;13.35;;
71975;SDS011;60680;52.182;5.398;2023-02-21T13:34:39;45.47;;;13.23;;
71975;SDS011;60680;52.182;5.398;2023-02-21T13:37:20;46.27;;;13.17;;
71975;SDS011;60680;52.182;5.398;2023-02-21T13:39:59;48.63;;;12.98;;
71975;SDS011;60680;52.182;5.398;2023-02-21T13:42:41;44.03;;;13.80;;
71975;SDS011;60680;52.182;5.398;2023-02-21T13:50:40;42.37;;;12.70;;
71975;SDS011;60680;52.182;5.398;2023-02-21T13:55:37;39.35;;;11.85;;
71975;SDS011;60680;52.182;5.398;2023-02-21T14:03:41;27.53;;;7.80;;
71975;SDS011;60680;52.182;5.398;2023-02-21T14:16:24;23.00;;;7.50;;
71975;SDS011;60680;52.182;5.398;2023-02-21T14:23:58;25.35;;;7.15;;
71975;SDS011;60680;52.182;5.398;2023-02-21T15:04:24;24.90;;;7.60;;
71975;SDS011;60680;52.182;5.398;2023-02-21T15:07:02;25.30;;;7.43;;
71975;SDS011;60680;52.182;5.398;2023-02-21T15:09:32;29.07;;;9.63;;
71975;SDS011;60680;52.182;5.398;2023-02-21T15:11:59;28.83;;;9.18;;
71975;SDS011;60680;52.182;5.398;2023-02-21T15:14:28;25.95;;;8.02;;
71975;SDS011;60680;52.182;5.398;2023-02-21T15:17:12;28.63;;;8.38;;
71975;SDS011;60680;52.182;5.398;2023-02-21T15:19:43;24.13;;;8.32;;
71975;SDS011;60680;52.182;5.398;2023-02-21T15:22:20;26.07;;;8.50;;
71975;SDS011;60680;52.182;5.398;2023-02-21T15:27:36;24.25;;;7.40;;
71975;SDS011;60680;52.182;5.398;2023-02-21T15:31:17;19.00;;;6.88;;
71975;SDS011;60680;52.182;5.398;2023-02-21T15:33:32;19.25;;;5.80;;
71975;SDS011;60680;52.182;5.398;2023-02-21T15:36:01;17.53;;;5.37;;
71975;SDS011;60680;52.182;5.398;2023-02-21T15:41:08;15.68;;;5.82;;
71975;SDS011;60680;52.182;5.398;2023-02-21T15:46:16;16.92;;;5.93;;
71975;SDS011;60680;52.182;5.398;2023-02-21T15:48:47;19.23;;;5.77;;
71975;SDS011;60680;52.182;5.398;2023-02-21T15:51:15;16.13;;;5.38;;
71975;SDS011;60680;52.182;5.398;2023-02-21T15:53:42;14.23;;;5.00;;
71975;SDS011;60680;52.182;5.398;2023-02-21T15:59:29;13.57;;;4.07;;
71975;SDS011;60680;52.182;5.398;2023-02-21T16:04:52;8.48;;;3.40;;
71975;SDS011;60680;52.182;5.398;2023-02-21T16:07:26;9.23;;;3.30;;
71975;SDS011;60680;52.182;5.398;2023-02-21T16:10:00;8.73;;;3.33;;
71975;SDS011;60680;52.182;5.398;2023-02-21T16:12:32;6.68;;;2.70;;
71975;SDS011;60680;52.182;5.398;2023-02-21T16:17:45;8.57;;;3.33;;
71975;SDS011;60680;52.182;5.398;2023-02-21T16:20:22;7.57;;;3.10;;
71975;SDS011;60680;52.182;5.398;2023-02-21T16:28:25;7.80;;;3.10;;
71975;SDS011;60680;52.182;5.398;2023-02-21T16:30:53;7.97;;;3.30;;
71975;SDS011;60680;52.182;5.398;2023-02-21T16:33:23;8.48;;;3.38;;
71975;SDS011;60680;52.182;5.398;2023-02-21T16:35:51;8.07;;;3.20;;
71975;SDS011;60680;52.182;5.398;2023-02-21T16:38:19;7.35;;;3.05;;
71975;SDS011;60680;52.182;5.398;2023-02-21T16:40:47;9.63;;;3.77;;
71975;SDS011;60680;52.182;5.398;2023-02-21T16:43:15;8.20;;;2.78;;
71975;SDS011;60680;52.182;5.398;2023-02-21T16:45:54;7.53;;;3.05;;
71975;SDS011;60680;52.182;5.398;2023-02-21T16:48:26;8.07;;;3.15;;
71975;SDS011;60680;52.182;5.398;2023-02-21T16:50:58;8.30;;;2.88;;
71975;SDS011;60680;52.182;5.398;2023-02-21T16:53:30;10.00;;;3.63;;
71975;SDS011;60680;52.182;5.398;2023-02-21T16:55:57;9.05;;;3.22;;
71975;SDS011;60680;52.182;5.398;2023-02-21T16:58:26;9.93;;;3.67;;
71975;SDS011;60680;52.182;5.398;2023-02-21T17:00:56;9.07;;;3.97;;
71975;SDS011;60680;52.182;5.398;2023-02-21T17:03:24;8.80;;;3.88;;
71975;SDS011;60680;52.182;5.398;2023-02-21T17:05:53;11.63;;;4.57;;
71975;SDS011;60680;52.182;5.398;2023-02-21T17:08:21;10.57;;;4.57;;
71975;SDS011;60680;52.182;5.398;2023-02-21T17:10:48;10.77;;;4.22;;
71975;SDS011;60680;52.182;5.398;2023-02-21T17:13:14;11.23;;;4.35;;
71975;SDS011;60680;52.182;5.398;2023-02-21T17:15:41;11.85;;;4.70;;
71975;SDS011;60680;52.182;5.398;2023-02-21T17:18:07;10.47;;;4.40;;
71975;SDS011;60680;52.182;5.398;2023-02-21T17:20:34;11.02;;;4.38;;
71975;SDS011;60680;52.182;5.398;2023-02-21T17:23:00;11.00;;;4.53;;
71975;SDS011;60680;52.182;5.398;2023-02-21T17:25:27;11.57;;;4.05;;
71975;SDS011;60680;52.182;5.398;2023-02-21T17:27:54;10.20;;;4.60;;
71975;SDS011;60680;52.182;5.398;2023-02-21T17:30:22;9.57;;;4.20;;
71975;SDS011;60680;52.182;5.398;2023-02-21T17:32:50;11.88;;;4.15;;
71975;SDS011;60680;52.182;5.398;2023-02-21T17:35:17;9.82;;;4.20;;
71975;SDS011;60680;52.182;5.398;2023-02-21T17:37:45;11.13;;;4.22;;
71975;SDS011;60680;52.182;5.398;2023-02-21T17:40:15;11.05;;;4.70;;
71975;SDS011;60680;52.182;5.398;2023-02-21T17:42:43;11.33;;;4.67;;
71975;SDS011;60680;52.182;5.398;2023-02-21T17:45:10;12.30;;;5.20;;
71975;SDS011;60680;52.182;5.398;2023-02-21T17:47:37;13.00;;;5.22;;
71975;SDS011;60680;52.182;5.398;2023-02-21T17:50:04;11.88;;;4.80;;
71975;SDS011;60680;52.182;5.398;2023-02-21T17:52:31;16.40;;;5.57;;
71975;SDS011;60680;52.182;5.398;2023-02-21T17:54:58;12.23;;;5.30;;
71975;SDS011;60680;52.182;5.398;2023-02-21T17:57:25;12.15;;;4.72;;
71975;SDS011;60680;52.182;5.398;2023-02-21T17:59:51;12.98;;;5.07;;
71975;SDS011;60680;52.182;5.398;2023-02-21T18:02:17;13.50;;;5.65;;
71975;SDS011;60680;52.182;5.398;2023-02-21T18:04:45;14.20;;;5.32;;
71975;SDS011;60680;52.182;5.398;2023-02-21T18:07:14;12.73;;;5.37;;
71975;SDS011;60680;52.182;5.398;2023-02-21T18:09:40;13.93;;;4.80;;
71975;SDS011;60680;52.182;5.398;2023-02-21T18:12:07;14.20;;;4.72;;
71975;SDS011;60680;52.182;5.398;2023-02-21T18:14:33;14.65;;;5.65;;
71975;SDS011;60680;52.182;5.398;2023-02-21T18:16:59;15.15;;;5.30;;
71975;SDS011;60680;52.182;5.398;2023-02-21T18:19:26;15.43;;;5.30;;